createdAt,value
2018-06-27T00:02:25.007Z,4.20
2018-06-27T00:04:55.803Z,5.03
2018-06-27T00:07:26.319Z,4.37
2018-06-27T00:09:56.815Z,4.23
2018-06-27T00:12:27.175Z,4.17
2018-06-27T00:14:57.501Z,4.60
2018-06-27T00:17:28.105Z,4.40
2018-06-27T00:19:59.566Z,5.20
2018-06-27T00:22:30.095Z,4.50
2018-06-27T00:25:00.614Z,4.63
2018-06-27T00:27:31.163Z,5.27
2018-06-27T00:30:01.709Z,5.37
2018-06-27T00:32:46.186Z,4.40
2018-06-27T00:35:16.818Z,5.20
2018-06-27T00:37:47.285Z,4.73
2018-06-27T00:40:17.929Z,5.03
2018-06-27T00:42:48.692Z,4.83
2018-06-27T00:45:19.281Z,5.00
2018-06-27T00:48:00.220Z,6.17
2018-06-27T00:50:30.717Z,5.20
2018-06-27T00:53:01.067Z,4.60
2018-06-27T00:55:31.792Z,5.03
2018-06-27T00:58:02.363Z,4.73
2018-06-27T01:00:32.958Z,5.03
2018-06-27T01:03:11.430Z,5.20
2018-06-27T01:05:42.029Z,4.97
2018-06-27T01:08:12.076Z,5.27
2018-06-27T01:10:42.636Z,4.90
2018-06-27T01:13:13.436Z,4.70
2018-06-27T01:15:43.876Z,5.20
2018-06-27T01:18:14.491Z,5.30
2018-06-27T01:20:45.219Z,4.90
2018-06-27T01:23:15.771Z,5.23
2018-06-27T01:25:46.556Z,5.57
2018-06-27T01:28:17.031Z,5.50
2018-06-27T01:30:47.547Z,4.53
2018-06-27T01:33:18.071Z,6.43
2018-06-27T01:35:48.583Z,5.60
2018-06-27T01:38:19.156Z,5.77
2018-06-27T01:40:49.774Z,5.57
2018-06-27T01:43:20.349Z,5.40
2018-06-27T01:45:50.780Z,5.43
2018-06-27T01:48:21.500Z,5.90
2018-06-27T01:50:52.375Z,5.00
2018-06-27T01:53:23.184Z,5.30
2018-06-27T01:55:53.815Z,5.00
2018-06-27T01:58:24.439Z,5.07
2018-06-27T02:00:54.938Z,4.87
2018-06-27T02:03:25.548Z,5.80
2018-06-27T02:05:56.051Z,5.73
2018-06-27T02:08:26.151Z,5.97
2018-06-27T02:10:56.606Z,6.27
2018-06-27T02:13:27.085Z,5.83
2018-06-27T02:15:57.580Z,6.30
2018-06-27T02:18:27.968Z,6.23
2018-06-27T02:21:02.063Z,5.20
2018-06-27T02:23:32.513Z,5.50
2018-06-27T02:26:03.143Z,6.00
2018-06-27T02:28:33.799Z,5.33
2018-06-27T02:31:04.195Z,5.60
2018-06-27T02:33:34.597Z,5.70
2018-06-27T02:36:09.257Z,5.37
2018-06-27T02:38:39.803Z,5.67
2018-06-27T02:41:10.371Z,5.23
2018-06-27T02:43:40.850Z,5.43
2018-06-27T02:46:11.349Z,5.87
2018-06-27T02:48:41.652Z,5.67
2018-06-27T02:51:12.371Z,5.97
2018-06-27T02:53:42.808Z,5.93
2018-06-27T02:56:13.261Z,5.77
2018-06-27T02:58:43.739Z,6.13
2018-06-27T03:01:14.275Z,5.63
2018-06-27T03:03:44.680Z,5.80
2018-06-27T03:06:15.360Z,6.07
2018-06-27T03:08:45.894Z,5.43
2018-06-27T03:11:16.303Z,6.13
2018-06-27T03:13:46.732Z,6.00
2018-06-27T03:16:17.268Z,6.13
2018-06-27T03:18:54.885Z,6.90
2018-06-27T03:21:26.262Z,5.73
2018-06-27T03:23:56.848Z,6.17
2018-06-27T03:26:27.420Z,6.30
2018-06-27T03:28:57.813Z,6.73
2018-06-27T03:31:28.573Z,6.50
2018-06-27T03:33:59.115Z,6.43
2018-06-27T03:36:29.495Z,5.87
2018-06-27T03:38:59.505Z,7.40
2018-06-27T03:41:30.018Z,5.93
2018-06-27T03:44:00.511Z,5.47
2018-06-27T03:46:31.085Z,6.30
2018-06-27T03:49:01.663Z,6.30
2018-06-27T03:51:32.240Z,6.07
2018-06-27T03:54:02.636Z,5.30
2018-06-27T03:56:33.052Z,5.93
2018-06-27T03:59:03.511Z,5.93
2018-06-27T04:01:34.011Z,6.17
2018-06-27T04:04:04.646Z,5.93
2018-06-27T04:06:35.028Z,6.33
2018-06-27T04:09:09.265Z,5.20
2018-06-27T04:11:40.419Z,5.53
2018-06-27T04:14:10.879Z,5.50
2018-06-27T04:16:41.577Z,5.60
2018-06-27T04:19:11.956Z,5.60
2018-06-27T04:21:42.576Z,6.17
2018-06-27T04:24:13.172Z,5.90
2018-06-27T04:26:43.624Z,5.47
2018-06-27T04:29:14.255Z,5.40
2018-06-27T04:31:44.650Z,5.60
2018-06-27T04:34:15.191Z,5.27
2018-06-27T04:36:45.611Z,6.17
2018-06-27T04:39:16.048Z,8.37
2018-06-27T04:41:46.623Z,5.80
2018-06-27T04:44:17.006Z,10.03
2018-06-27T04:46:47.636Z,8.73
2018-06-27T04:49:17.992Z,6.87
2018-06-27T04:51:48.574Z,6.97
2018-06-27T04:54:19.238Z,6.10
2018-06-27T04:56:49.815Z,9.50
2018-06-27T04:59:20.500Z,7.13
2018-06-27T05:01:51.064Z,5.43
2018-06-27T05:04:21.599Z,5.80
2018-06-27T05:06:55.300Z,10.53
2018-06-27T05:09:26.045Z,5.43
2018-06-27T05:11:56.475Z,4.97
2018-06-27T05:14:26.998Z,5.23
2018-06-27T05:16:57.371Z,5.50
2018-06-27T05:19:28.104Z,5.37
2018-06-27T05:21:58.659Z,5.07
2018-06-27T05:24:29.406Z,4.47
2018-06-27T05:26:59.935Z,6.33
2018-06-27T05:29:43.353Z,4.90
2018-06-27T05:32:13.810Z,4.83
2018-06-27T05:34:44.150Z,4.30
2018-06-27T05:37:14.615Z,4.77
2018-06-27T05:39:44.627Z,4.10
2018-06-27T05:42:15.152Z,4.00
2018-06-27T05:44:45.734Z,4.47
2018-06-27T05:47:15.882Z,3.67
2018-06-27T05:49:57.230Z,3.77
2018-06-27T05:52:27.924Z,4.50
2018-06-27T05:55:03.241Z,3.83
2018-06-27T05:57:33.764Z,3.97
2018-06-27T06:00:04.745Z,5.50
2018-06-27T06:02:35.114Z,4.63
2018-06-27T06:05:05.935Z,5.07
2018-06-27T06:07:36.597Z,3.77
2018-06-27T06:10:07.169Z,3.93
2018-06-27T06:12:37.743Z,3.60
2018-06-27T06:15:08.407Z,5.25
2018-06-27T06:17:39.307Z,4.70
2018-06-27T06:20:09.804Z,4.27
2018-06-27T06:22:40.175Z,3.77
2018-06-27T06:25:10.575Z,4.42
2018-06-27T06:27:40.640Z,4.37
2018-06-27T06:30:10.807Z,5.65
2018-06-27T06:32:44.796Z,3.80
2018-06-27T06:35:14.690Z,4.40
2018-06-27T06:37:44.862Z,3.72
2018-06-27T06:40:15.571Z,4.67
2018-06-27T06:42:45.740Z,4.22
2018-06-27T06:45:15.693Z,3.47
2018-06-27T06:47:53.315Z,3.20
2018-06-27T06:50:23.861Z,3.95
2018-06-27T06:52:54.327Z,3.35
2018-06-27T06:55:24.917Z,3.80
2018-06-27T06:58:03.012Z,3.80
2018-06-27T07:00:41.463Z,3.83
2018-06-27T07:03:11.535Z,3.72
2018-06-27T07:05:41.675Z,3.90
2018-06-27T07:08:11.943Z,3.85
2018-06-27T07:10:42.432Z,3.95
2018-06-27T07:13:12.755Z,4.10
2018-06-27T07:15:43.395Z,4.25
2018-06-27T07:18:13.890Z,3.60
2018-06-27T07:20:52.188Z,3.60
2018-06-27T07:23:22.668Z,3.98
2018-06-27T07:25:52.770Z,3.30
2018-06-27T07:28:23.266Z,3.58
2018-06-27T07:30:53.555Z,4.00
2018-06-27T07:33:23.905Z,4.15
2018-06-27T07:36:14.636Z,3.67
2018-06-27T07:38:45.025Z,3.62
2018-06-27T07:41:15.476Z,3.37
2018-06-27T07:43:45.848Z,3.30
2018-06-27T07:46:16.341Z,3.20
2018-06-27T07:48:46.729Z,3.10
2018-06-27T07:51:17.201Z,3.58
2018-06-27T07:53:47.213Z,3.40
2018-06-27T07:56:17.573Z,3.65
2018-06-27T07:58:48.028Z,2.58
2018-06-27T08:01:18.439Z,3.08
2018-06-27T08:03:49.222Z,2.72
2018-06-27T08:06:19.656Z,2.90
2018-06-27T08:08:50.431Z,2.50
2018-06-27T08:11:20.528Z,2.60
2018-06-27T08:13:50.741Z,2.87
2018-06-27T08:16:21.328Z,2.45
2018-06-27T08:18:52.012Z,3.05
2018-06-27T08:21:22.224Z,2.95
2018-06-27T08:23:52.552Z,2.83
2018-06-27T08:26:22.900Z,2.92
2018-06-27T08:28:53.389Z,2.67
2018-06-27T08:31:23.532Z,2.87
2018-06-27T08:33:54.040Z,2.95
2018-06-27T08:36:24.204Z,2.80
2018-06-27T08:38:54.536Z,2.55
2018-06-27T08:41:25.110Z,2.65
2018-06-27T08:43:55.616Z,2.70
2018-06-27T08:46:26.159Z,2.10
2018-06-27T08:48:56.312Z,2.50
2018-06-27T08:51:26.865Z,2.40
2018-06-27T08:53:57.235Z,2.50
2018-06-27T08:56:27.209Z,2.50
2018-06-27T08:58:57.675Z,2.62
2018-06-27T09:01:28.147Z,3.08
2018-06-27T09:03:58.252Z,2.90
2018-06-27T09:06:28.607Z,2.58
2018-06-27T09:08:58.969Z,2.67
2018-06-27T09:11:29.055Z,2.40
2018-06-27T09:13:59.256Z,2.10
2018-06-27T09:16:29.407Z,1.90
2018-06-27T09:19:00.035Z,2.50
2018-06-27T09:21:30.430Z,2.50
2018-06-27T09:24:00.757Z,2.30
2018-06-27T09:26:31.147Z,2.40
2018-06-27T09:29:01.474Z,2.25
2018-06-27T09:31:31.786Z,2.00
2018-06-27T09:34:01.948Z,2.35
2018-06-27T09:36:32.264Z,2.58
2018-06-27T09:39:02.836Z,1.95
2018-06-27T09:41:33.344Z,1.80
2018-06-27T09:44:03.910Z,1.85
2018-06-27T09:46:35.052Z,2.60
2018-06-27T09:49:05.522Z,2.83
2018-06-27T09:51:35.895Z,2.02
2018-06-27T09:54:06.560Z,1.70
2018-06-27T09:56:37.070Z,1.90
2018-06-27T09:59:07.155Z,2.72
2018-06-27T10:01:37.588Z,1.50
2018-06-27T10:04:08.070Z,1.90
2018-06-27T10:06:38.629Z,1.52
2018-06-27T10:09:10.611Z,1.80
2018-06-27T10:11:41.107Z,2.40
2018-06-27T10:14:11.583Z,1.60
2018-06-27T10:16:41.989Z,1.60
2018-06-27T10:19:12.404Z,1.72
2018-06-27T10:21:42.439Z,1.85
2018-06-27T10:24:12.529Z,1.35
2018-06-27T10:26:43.092Z,1.70
2018-06-27T10:29:13.432Z,1.80
2018-06-27T10:31:43.776Z,2.47
2018-06-27T10:34:13.874Z,2.25
2018-06-27T10:36:44.270Z,1.82
2018-06-27T10:39:14.806Z,1.92
2018-06-27T10:41:45.281Z,1.90
2018-06-27T10:44:15.816Z,1.92
2018-06-27T10:46:45.816Z,2.60
2018-06-27T10:49:16.298Z,1.90
2018-06-27T10:51:46.455Z,1.77
2018-06-27T10:54:16.680Z,1.85
2018-06-27T10:56:47.176Z,2.20
2018-06-27T10:59:17.769Z,2.02
2018-06-27T11:01:48.281Z,2.00
2018-06-27T11:04:18.859Z,2.00
2018-06-27T11:06:49.278Z,1.45
2018-06-27T11:09:19.736Z,1.77
2018-06-27T11:11:49.730Z,1.92
2018-06-27T11:14:20.138Z,1.77
2018-06-27T11:16:50.457Z,1.50
2018-06-27T11:19:20.822Z,1.52
2018-06-27T11:21:51.435Z,1.75
2018-06-27T11:24:21.795Z,1.52
2018-06-27T11:26:52.458Z,1.98
2018-06-27T11:29:22.834Z,1.77
2018-06-27T11:31:52.694Z,1.55
2018-06-27T11:34:22.864Z,2.10
2018-06-27T11:36:53.589Z,1.90
2018-06-27T11:39:23.923Z,1.70
2018-06-27T11:41:54.369Z,1.80
2018-06-27T11:44:24.799Z,1.50
2018-06-27T11:46:55.336Z,1.95
2018-06-27T11:49:26.113Z,1.45
2018-06-27T11:51:56.603Z,2.25
2018-06-27T11:54:26.909Z,2.17
2018-06-27T11:56:57.404Z,1.95
2018-06-27T11:59:27.572Z,1.50
2018-06-27T12:01:57.867Z,1.40
2018-06-27T12:04:28.563Z,1.60
2018-06-27T12:06:59.646Z,2.12
2018-06-27T12:09:29.557Z,1.40
2018-06-27T12:11:59.903Z,1.55
2018-06-27T12:14:30.316Z,1.77
2018-06-27T12:17:00.794Z,1.60
2018-06-27T12:19:31.515Z,1.67
2018-06-27T12:22:02.068Z,1.90
2018-06-27T12:24:32.673Z,2.02
2018-06-27T12:27:03.026Z,1.40
2018-06-27T12:29:33.497Z,1.62
2018-06-27T12:32:03.914Z,1.70
2018-06-27T12:34:34.330Z,1.42
2018-06-27T12:37:04.827Z,1.20
2018-06-27T12:39:35.248Z,1.42
2018-06-27T12:42:05.679Z,1.20
2018-06-27T12:44:35.647Z,1.35
2018-06-27T12:47:05.997Z,1.55
2018-06-27T12:49:36.498Z,1.52
2018-06-27T12:52:07.076Z,1.32
2018-06-27T12:55:04.816Z,1.30
2018-06-27T12:57:35.304Z,1.30
2018-06-27T13:00:07.768Z,1.22
2018-06-27T13:02:37.820Z,2.22
2018-06-27T13:05:09.889Z,1.20
2018-06-27T13:07:39.963Z,1.50
2018-06-27T13:10:10.610Z,1.75
2018-06-27T13:12:40.959Z,1.50
2018-06-27T13:15:11.408Z,1.60
2018-06-27T13:17:41.420Z,1.42
2018-06-27T13:20:11.659Z,1.37
2018-06-27T13:22:41.515Z,1.57
2018-06-27T13:25:11.875Z,1.22
2018-06-27T13:27:42.531Z,1.72
2018-06-27T13:30:13.187Z,1.67
2018-06-27T13:32:43.869Z,1.77
2018-06-27T13:35:14.243Z,1.57
2018-06-27T13:37:44.359Z,2.17
2018-06-27T13:40:14.420Z,1.67
2018-06-27T13:42:44.834Z,1.80
2018-06-27T13:45:14.920Z,2.00
2018-06-27T13:47:45.367Z,1.73
2018-06-27T13:50:15.700Z,1.60
2018-06-27T13:52:46.288Z,1.97
2018-06-27T13:55:22.694Z,1.83
2018-06-27T13:57:53.154Z,2.07
2018-06-27T14:00:23.730Z,2.20
2018-06-27T14:02:53.935Z,1.90
2018-06-27T14:05:24.121Z,2.50
2018-06-27T14:07:54.216Z,2.20
2018-06-27T14:10:24.738Z,2.00
2018-06-27T14:12:55.488Z,2.60
2018-06-27T14:15:25.990Z,2.50
2018-06-27T14:17:56.563Z,2.80
2018-06-27T14:20:26.917Z,2.47
2018-06-27T14:22:57.551Z,2.50
2018-06-27T14:25:28.115Z,2.37
2018-06-27T14:27:58.506Z,2.17
2018-06-27T14:30:28.934Z,2.17
2018-06-27T14:32:59.620Z,2.70
2018-06-27T14:35:30.081Z,2.37
2018-06-27T14:38:00.789Z,2.10
2018-06-27T14:40:31.515Z,2.30
2018-06-27T14:43:01.961Z,1.90
2018-06-27T14:45:32.045Z,2.50
2018-06-27T14:48:02.680Z,2.30
2018-06-27T14:50:33.148Z,2.13
2018-06-27T14:53:03.784Z,2.47
2018-06-27T14:55:34.208Z,2.50
2018-06-27T14:58:04.607Z,1.87
2018-06-27T15:00:34.951Z,2.30
2018-06-27T15:03:05.365Z,2.10
2018-06-27T15:05:35.991Z,2.60
2018-06-27T15:08:06.541Z,2.30
2018-06-27T15:10:36.866Z,2.27
2018-06-27T15:13:07.332Z,2.43
2018-06-27T15:15:37.969Z,2.67
2018-06-27T15:18:08.429Z,2.70
2018-06-27T15:20:39.084Z,2.13
2018-06-27T15:23:09.581Z,2.37
2018-06-27T15:25:39.990Z,3.07
2018-06-27T15:28:10.395Z,2.37
2018-06-27T15:30:40.886Z,3.07
2018-06-27T15:33:11.382Z,2.40
2018-06-27T15:35:41.783Z,2.67
2018-06-27T15:38:11.992Z,2.23
2018-06-27T15:40:42.490Z,2.07
2018-06-27T15:43:14.760Z,2.93
2018-06-27T15:45:44.987Z,2.63
2018-06-27T15:48:15.811Z,3.23
2018-06-27T15:50:46.128Z,3.00
2018-06-27T15:53:16.217Z,2.40
2018-06-27T15:55:46.804Z,2.30
2018-06-27T15:58:17.567Z,2.13
2018-06-27T16:00:47.964Z,1.97
2018-06-27T16:03:18.396Z,2.33
2018-06-27T16:06:05.851Z,2.87
2018-06-27T16:08:36.377Z,2.63
2018-06-27T16:11:06.996Z,2.07
2018-06-27T16:13:37.846Z,2.30
2018-06-27T16:16:09.637Z,3.00
2018-06-27T16:18:40.188Z,1.83
2018-06-27T16:21:10.759Z,2.63
2018-06-27T16:23:41.269Z,2.47
2018-06-27T16:26:11.373Z,2.00
2018-06-27T16:28:41.592Z,2.60
2018-06-27T16:31:17.624Z,3.02
2018-06-27T16:33:48.036Z,1.67
2018-06-27T16:36:18.190Z,1.67
2018-06-27T16:38:48.791Z,2.02
2018-06-27T16:41:19.228Z,1.20
2018-06-27T16:43:49.693Z,1.12
2018-06-27T16:46:37.690Z,1.32
2018-06-27T16:49:08.663Z,1.75
2018-06-27T16:51:41.595Z,2.47
2018-06-27T16:54:12.069Z,1.67
2018-06-27T16:56:42.460Z,1.50
2018-06-27T16:59:12.908Z,1.62
2018-06-27T17:01:43.561Z,1.70
2018-06-27T17:04:14.084Z,1.23
2018-06-27T17:06:44.623Z,1.80
2018-06-27T17:09:15.229Z,1.73
2018-06-27T17:11:45.775Z,1.30
2018-06-27T17:14:16.230Z,1.10
2018-06-27T17:16:46.075Z,1.10
2018-06-27T17:19:16.848Z,1.30
2018-06-27T17:21:47.273Z,1.40
2018-06-27T17:27:24.584Z,1.05
2018-06-27T17:29:55.098Z,1.10
2018-06-27T17:32:32.650Z,1.30
2018-06-27T17:35:03.727Z,1.23
2018-06-27T17:37:35.397Z,1.13
2018-06-27T17:40:06.766Z,1.60
2018-06-27T17:42:37.171Z,1.03
2018-06-27T17:45:07.970Z,1.20
2018-06-27T17:47:38.522Z,1.30
2018-06-27T17:50:09.023Z,1.13
2018-06-27T17:52:40.541Z,1.30
2018-06-27T17:55:16.723Z,1.20
2018-06-27T17:57:46.612Z,1.07
2018-06-27T18:00:17.373Z,1.00
2018-06-27T18:02:47.710Z,1.20
2018-06-27T18:05:36.480Z,1.47
2018-06-27T18:08:06.877Z,1.17
2018-06-27T18:10:37.391Z,1.10
2018-06-27T18:13:07.879Z,1.20
2018-06-27T18:15:38.391Z,1.10
2018-06-27T18:21:08.839Z,1.20
2018-06-27T18:23:39.359Z,1.40
2018-06-27T18:26:09.879Z,1.30
2018-06-27T18:28:40.271Z,1.20
2018-06-27T18:31:10.795Z,1.40
2018-06-27T18:33:41.204Z,1.30
2018-06-27T18:36:11.893Z,1.70
2018-06-27T18:38:42.336Z,1.80
2018-06-27T18:41:12.447Z,1.60
2018-06-27T18:43:53.459Z,1.70
2018-06-27T18:46:24.056Z,1.60
2018-06-27T18:49:02.350Z,1.53
2018-06-27T18:51:32.852Z,1.90
2018-06-27T18:54:03.367Z,1.93
2018-06-27T18:56:34.575Z,1.80
2018-06-27T18:59:05.029Z,1.30
2018-06-27T19:01:36.713Z,2.13
2018-06-27T19:04:07.315Z,1.53
2018-06-27T19:06:43.336Z,1.63
2018-06-27T19:09:14.083Z,1.90
2018-06-27T19:11:44.617Z,1.60
2018-06-27T19:14:15.140Z,1.87
2018-06-27T19:17:03.132Z,1.93
2018-06-27T19:19:33.534Z,1.77
2018-06-27T19:22:09.636Z,1.97
2018-06-27T19:24:40.461Z,1.87
2018-06-27T19:27:11.092Z,1.70
2018-06-27T19:29:41.703Z,1.70
2018-06-27T19:32:12.235Z,1.70
2018-06-27T19:34:42.938Z,2.20
2018-06-27T19:37:14.512Z,1.60
2018-06-27T19:39:45.280Z,1.70
2018-06-27T19:42:15.834Z,1.80
2018-06-27T19:44:45.729Z,1.80
2018-06-27T19:47:16.439Z,2.07
2018-06-27T19:49:47.477Z,1.70
2018-06-27T19:52:18.177Z,1.77
2018-06-27T19:54:53.095Z,1.87
2018-06-27T19:57:24.812Z,2.03
2018-06-27T19:59:55.240Z,1.77
2018-06-27T20:02:25.709Z,2.30
2018-06-27T20:04:56.145Z,1.90
2018-06-27T20:07:26.716Z,2.03
2018-06-27T20:09:56.664Z,2.03
2018-06-27T20:12:30.515Z,1.83
2018-06-27T20:15:01.066Z,1.83
2018-06-27T20:17:31.544Z,1.90
2018-06-27T20:20:01.841Z,2.00
2018-06-27T20:22:32.408Z,1.93
2018-06-27T20:25:04.841Z,1.77
2018-06-27T20:27:35.405Z,2.10
2018-06-27T20:30:13.236Z,1.90
2018-06-27T20:32:43.856Z,2.17
2018-06-27T20:35:14.301Z,2.00
2018-06-27T20:37:44.941Z,1.83
2018-06-27T20:40:15.487Z,1.73
2018-06-27T20:42:46.483Z,2.07
2018-06-27T20:45:27.848Z,2.00
2018-06-27T20:47:58.307Z,1.73
2018-06-27T20:50:39.495Z,1.70
2018-06-27T20:53:10.140Z,2.00
2018-06-27T20:55:40.653Z,1.83
2018-06-27T20:58:11.345Z,2.20
2018-06-27T21:00:41.544Z,1.87
2018-06-27T21:03:12.226Z,2.00
2018-06-27T21:05:42.860Z,1.60
2018-06-27T21:08:13.195Z,2.10
2018-06-27T21:10:45.767Z,1.87
2018-06-27T21:13:16.503Z,2.00
2018-06-27T21:15:47.076Z,1.90
2018-06-27T21:18:30.905Z,1.97
2018-06-27T21:21:13.224Z,2.00
2018-06-27T21:23:47.651Z,2.00
2018-06-27T21:26:22.546Z,2.10
2018-06-27T21:28:54.084Z,2.27
2018-06-27T21:31:25.476Z,1.87
2018-06-27T21:34:16.151Z,2.30
2018-06-27T21:36:48.643Z,1.93
2018-06-27T21:39:25.621Z,2.00
2018-06-27T21:42:00.288Z,1.90
2018-06-27T21:44:30.736Z,1.83
2018-06-27T21:47:01.327Z,1.90
2018-06-27T21:49:31.961Z,2.10
2018-06-27T21:52:02.359Z,2.03
2018-06-27T21:54:32.467Z,1.87
2018-06-27T21:57:02.835Z,1.83
2018-06-27T21:59:33.119Z,1.90
2018-06-27T22:02:03.720Z,1.90
2018-06-27T22:04:34.259Z,2.13
2018-06-27T22:07:05.207Z,1.70
2018-06-27T22:09:35.216Z,2.20
2018-06-27T22:12:05.862Z,2.03
2018-06-27T22:14:36.507Z,2.20
2018-06-27T22:17:07.009Z,1.90
2018-06-27T22:19:37.504Z,1.80
2018-06-27T22:22:07.902Z,2.20
2018-06-27T22:24:38.345Z,2.13
2018-06-27T22:27:08.915Z,2.00
2018-06-27T22:29:39.596Z,1.90
2018-06-27T22:32:11.408Z,2.00
2018-06-27T22:34:44.099Z,2.00
2018-06-27T22:37:14.560Z,2.10
2018-06-27T22:39:45.080Z,2.07
2018-06-27T22:42:15.424Z,2.27
2018-06-27T22:44:45.600Z,1.80
2018-06-27T22:47:32.295Z,1.90
2018-06-27T22:50:02.875Z,1.60
2018-06-27T22:52:33.312Z,2.13
2018-06-27T22:55:04.823Z,1.93
2018-06-27T22:57:50.971Z,1.97
2018-06-27T23:00:25.646Z,1.90
2018-06-27T23:03:07.360Z,2.03
2018-06-27T23:05:37.975Z,2.10
2018-06-27T23:11:08.668Z,2.00
2018-06-27T23:13:39.286Z,1.77
2018-06-27T23:16:09.634Z,1.87
2018-06-27T23:18:40.139Z,2.23
2018-06-27T23:21:10.524Z,2.67
2018-06-27T23:23:41.181Z,2.10
2018-06-27T23:26:12.243Z,2.27
2018-06-27T23:28:42.839Z,1.97
2018-06-27T23:31:13.360Z,2.13
2018-06-27T23:33:44.124Z,2.00
2018-06-27T23:36:14.772Z,1.77
2018-06-27T23:38:45.281Z,2.03
2018-06-27T23:41:15.626Z,2.00
2018-06-27T23:44:10.745Z,2.20
2018-06-27T23:46:41.472Z,2.03
2018-06-27T23:49:12.325Z,2.07
2018-06-27T23:51:42.873Z,2.00
2018-06-27T23:54:13.622Z,2.40
2018-06-27T23:56:44.137Z,2.17
2018-06-27T23:59:14.692Z,1.83
